Terminal Aerodrome Forecast
Issued by NWS

Home | Current Version | Previous Version | Text Only | Print | Product List | Glossary On
Versions: 1 2 3 4 5 6 7 8 9 10 11 12 13 14
607
FTUS43 KJKL 181120
TAFSME
TAF
KSME 181120Z 1812/1912 18003KT P6SM SKC WS020/25035KT
     FM181330 21012G19KT P6SM FEW200
     FM181800 23018G27KT P6SM SCT045
     FM190000 26021G30KT P6SM VCSH BKN035=

USA.gov is the U.S. government's official web portal to all federal, state and local government web resources and services.